createdAt,value
2022-09-07T00:02:50.442Z,12.63
2022-09-07T00:05:53.531Z,13.95
2022-09-07T00:08:56.593Z,14.07
2022-09-07T00:11:59.609Z,13.70
2022-09-07T00:15:04.188Z,13.40
2022-09-07T00:18:07.660Z,13.77
2022-09-07T00:21:11.269Z,14.05
2022-09-07T00:24:14.314Z,13.10
2022-09-07T00:27:17.384Z,14.88
2022-09-07T00:30:20.416Z,13.20
2022-09-07T00:33:23.521Z,21.85
2022-09-07T00:36:26.552Z,13.98
2022-09-07T00:39:29.820Z,12.97
2022-09-07T00:42:32.838Z,13.70
2022-09-07T00:45:35.825Z,15.43
2022-09-07T00:48:49.796Z,13.13
2022-09-07T00:51:56.110Z,13.25
2022-09-07T00:55:02.190Z,15.20
2022-09-07T00:58:05.202Z,13.52
2022-09-07T01:01:08.202Z,14.30
2022-09-07T01:04:11.214Z,15.98
2022-09-07T01:07:14.204Z,13.68
2022-09-07T01:10:17.269Z,14.20
2022-09-07T01:13:20.291Z,14.80
2022-09-07T01:16:47.349Z,13.73
2022-09-07T01:19:53.529Z,14.07
2022-09-07T01:23:20.505Z,15.52
2022-09-07T01:26:58.738Z,14.60
2022-09-07T01:30:05.769Z,15.30
2022-09-07T01:33:11.543Z,14.77
2022-09-07T01:36:37.815Z,14.48
2022-09-07T01:39:54.595Z,14.52
2022-09-07T01:43:02.436Z,14.57
2022-09-07T01:46:09.791Z,17.35
2022-09-07T01:49:27.690Z,13.63
2022-09-07T01:52:33.754Z,16.10
2022-09-07T01:55:47.898Z,15.57
2022-09-07T01:59:05.943Z,15.83
2022-09-07T02:02:14.756Z,15.32
2022-09-07T02:05:23.122Z,16.05
2022-09-07T02:08:37.546Z,14.48
2022-09-07T02:11:45.462Z,18.40
2022-09-07T02:14:52.699Z,14.63
2022-09-07T02:17:59.980Z,16.50
2022-09-07T02:21:02.993Z,15.18
2022-09-07T02:24:09.427Z,18.50
2022-09-07T02:27:17.541Z,16.80
2022-09-07T02:30:20.538Z,15.87
2022-09-07T02:33:23.582Z,15.23
2022-09-07T02:36:28.899Z,15.23
2022-09-07T02:39:32.058Z,16.30
2022-09-07T02:42:35.355Z,14.35
2022-09-07T02:45:59.844Z,15.23
2022-09-07T02:49:33.661Z,14.45
2022-09-07T02:53:15.034Z,15.52
2022-09-07T02:56:46.897Z,18.20
2022-09-07T03:00:05.992Z,16.30
2022-09-07T03:03:28.514Z,15.77
2022-09-07T03:06:35.099Z,14.82
2022-09-07T03:09:39.882Z,17.33
2022-09-07T03:12:47.467Z,16.38
2022-09-07T03:15:55.540Z,15.15
2022-09-07T03:18:59.094Z,15.43
2022-09-07T03:22:02.338Z,16.38
2022-09-07T03:25:06.045Z,16.58
2022-09-07T03:28:09.076Z,14.50
2022-09-07T03:31:12.210Z,15.25
2022-09-07T03:34:15.908Z,14.97
2022-09-07T03:37:18.902Z,14.20
2022-09-07T03:40:21.893Z,14.80
2022-09-07T03:43:25.498Z,15.23
2022-09-07T03:46:28.523Z,15.38
2022-09-07T03:49:31.530Z,15.03
2022-09-07T03:52:35.388Z,14.88
2022-09-07T03:55:38.406Z,16.65
2022-09-07T03:58:41.546Z,14.50
2022-09-07T04:01:44.660Z,14.18
2022-09-07T04:04:47.690Z,15.13
2022-09-07T04:07:50.745Z,14.20
2022-09-07T04:10:53.746Z,14.48
2022-09-07T04:13:56.732Z,13.77
2022-09-07T04:16:59.803Z,13.57
2022-09-07T04:20:04.701Z,14.10
2022-09-07T04:23:07.696Z,13.23
2022-09-07T04:26:23.108Z,13.55
2022-09-07T04:29:26.138Z,15.65
2022-09-07T04:32:29.111Z,13.52
2022-09-07T04:35:32.150Z,14.10
2022-09-07T04:38:35.253Z,14.00
2022-09-07T04:41:38.266Z,14.02
2022-09-07T04:44:41.290Z,15.13
2022-09-07T04:47:51.064Z,13.70
2022-09-07T04:50:54.120Z,12.83
2022-09-07T04:53:57.953Z,17.20
2022-09-07T04:57:00.997Z,14.07
2022-09-07T05:00:08.016Z,14.77
2022-09-07T05:03:11.121Z,14.23
2022-09-07T05:06:14.222Z,19.87
2022-09-07T05:09:17.215Z,18.10
2022-09-07T05:12:20.622Z,16.20
2022-09-07T05:15:23.620Z,16.70
2022-09-07T05:18:27.086Z,20.55
2022-09-07T05:21:31.829Z,16.90
2022-09-07T05:24:36.747Z,19.17
2022-09-07T05:27:39.784Z,15.10
2022-09-07T05:37:29.537Z,16.27
2022-09-07T05:40:35.175Z,15.18
2022-09-07T05:47:05.207Z,14.98
2022-09-07T05:50:09.109Z,14.02
2022-09-07T05:53:12.144Z,12.93
2022-09-07T05:56:15.182Z,14.88
2022-09-07T05:59:18.173Z,15.95
2022-09-07T06:02:21.334Z,14.52
2022-09-07T06:05:24.439Z,14.05
2022-09-07T06:08:27.586Z,18.40
2022-09-07T06:11:30.603Z,15.35
2022-09-07T06:14:36.410Z,13.00
2022-09-07T06:17:39.843Z,13.20
2022-09-07T06:20:43.085Z,13.35
2022-09-07T06:23:46.563Z,13.73
2022-09-07T06:26:49.552Z,13.00
2022-09-07T06:29:52.591Z,13.13
2022-09-07T06:32:55.611Z,11.15
2022-09-07T06:35:59.712Z,12.40
2022-09-07T06:39:02.852Z,12.00
2022-09-07T06:42:21.054Z,13.50
2022-09-07T06:45:32.174Z,13.52
2022-09-07T06:48:35.257Z,13.68
2022-09-07T06:51:38.544Z,10.05
2022-09-07T06:58:01.275Z,8.75
2022-09-07T07:01:10.717Z,9.77
2022-09-07T07:04:13.975Z,12.40
2022-09-07T07:07:17.003Z,10.80
2022-09-07T07:10:24.760Z,10.00
2022-09-07T07:13:28.155Z,12.73
2022-09-07T07:16:31.481Z,10.73
2022-09-07T07:19:34.691Z,10.10
2022-09-07T07:22:53.010Z,9.25
2022-09-07T07:25:56.153Z,10.20
2022-09-07T07:32:07.197Z,10.00
2022-09-07T07:35:10.644Z,8.68
2022-09-07T07:48:18.417Z,10.35
2022-09-07T07:51:21.492Z,9.20
2022-09-07T07:54:24.477Z,10.45
2022-09-07T07:57:27.449Z,10.60
2022-09-07T08:00:50.820Z,9.95
2022-09-07T08:03:53.420Z,14.70
2022-09-07T08:06:56.584Z,9.85
2022-09-07T08:09:59.539Z,9.93
2022-09-07T08:13:07.052Z,9.03
2022-09-07T08:16:10.251Z,8.65
2022-09-07T08:19:13.288Z,8.90
2022-09-07T08:22:16.277Z,11.52
2022-09-07T08:25:19.661Z,9.15
2022-09-07T08:28:23.759Z,11.50
2022-09-07T08:31:27.200Z,10.60
2022-09-07T08:34:30.137Z,9.90
2022-09-07T08:37:33.041Z,8.68
2022-09-07T08:40:38.749Z,9.80
2022-09-07T08:43:52.371Z,10.80
2022-09-07T08:46:56.479Z,9.88
2022-09-07T08:50:11.951Z,10.13
2022-09-07T08:53:15.985Z,11.18
2022-09-07T08:56:34.150Z,7.80
2022-09-07T09:00:06.128Z,8.37
2022-09-07T09:03:29.835Z,10.30
2022-09-07T09:06:43.970Z,8.70
2022-09-07T09:09:51.814Z,9.52
2022-09-07T09:13:02.345Z,9.00
2022-09-07T09:16:44.832Z,9.27
2022-09-07T09:20:11.652Z,10.73
2022-09-07T09:23:16.102Z,8.38
2022-09-07T09:26:23.995Z,8.75
2022-09-07T09:29:26.910Z,9.70
2022-09-07T09:32:35.031Z,11.73
2022-09-07T09:35:38.482Z,8.20
2022-09-07T09:38:43.548Z,9.93
2022-09-07T09:41:46.513Z,8.73
2022-09-07T09:44:49.597Z,8.68
2022-09-07T09:47:52.901Z,9.00
2022-09-07T09:54:33.578Z,8.80
2022-09-07T10:01:27.333Z,9.30
2022-09-07T10:04:33.916Z,7.63
2022-09-07T10:07:37.050Z,10.48
2022-09-07T10:10:39.936Z,9.77
2022-09-07T10:13:56.217Z,11.95
2022-09-07T10:16:59.562Z,11.00
2022-09-07T10:20:17.539Z,8.53
2022-09-07T10:23:22.481Z,9.27
2022-09-07T10:26:36.167Z,9.98
2022-09-07T10:29:39.078Z,8.30
2022-09-07T10:32:51.221Z,9.23
2022-09-07T10:36:05.607Z,9.57
2022-09-07T10:39:13.984Z,10.93
2022-09-07T10:42:26.337Z,8.27
2022-09-07T10:46:05.668Z,13.18
2022-09-07T10:49:20.627Z,13.40
2022-09-07T10:52:35.833Z,9.43
2022-09-07T10:55:43.004Z,10.32
2022-09-07T10:59:19.984Z,8.10
2022-09-07T11:06:35.655Z,7.93
2022-09-07T11:09:56.264Z,8.47
2022-09-07T11:13:00.618Z,10.40
2022-09-07T11:16:08.721Z,10.13
2022-09-07T11:19:48.557Z,8.90
2022-09-07T11:22:47.403Z,8.95
2022-09-07T11:25:59.008Z,7.73
2022-09-07T11:32:28.909Z,10.82
2022-09-07T11:35:59.752Z,10.85
2022-09-07T11:39:14.304Z,9.02
2022-09-07T11:42:52.719Z,11.00
2022-09-07T11:46:04.954Z,9.43
2022-09-07T11:49:30.535Z,11.55
2022-09-07T11:52:40.939Z,11.25
2022-09-07T11:55:45.785Z,9.53
2022-09-07T11:58:54.468Z,9.03
2022-09-07T12:02:06.348Z,14.27
2022-09-07T12:05:18.772Z,13.93
2022-09-07T12:08:25.364Z,11.68
2022-09-07T12:11:37.274Z,8.40
2022-09-07T12:15:17.705Z,10.20
2022-09-07T12:18:26.510Z,9.02
2022-09-07T12:21:44.220Z,13.25
2022-09-07T12:24:50.090Z,12.32
2022-09-07T12:27:53.395Z,10.00
2022-09-07T12:31:01.027Z,10.57
2022-09-07T12:34:31.769Z,10.48
2022-09-07T12:37:35.575Z,10.75
2022-09-07T12:40:38.650Z,11.82
2022-09-07T12:43:44.357Z,11.63
2022-09-07T12:46:48.962Z,11.80
2022-09-07T12:50:10.660Z,10.40
2022-09-07T12:53:57.720Z,11.77
2022-09-07T13:01:06.428Z,12.07
2022-09-07T13:04:28.180Z,12.20
2022-09-07T13:07:49.136Z,12.90
2022-09-07T13:10:52.048Z,11.65
2022-09-07T13:14:04.762Z,12.45
2022-09-07T13:17:29.679Z,13.33
2022-09-07T13:20:37.664Z,14.00
2022-09-07T13:23:43.735Z,14.10
2022-09-07T13:27:16.031Z,14.27
2022-09-07T13:30:44.265Z,16.63
2022-09-07T13:33:49.287Z,14.03
2022-09-07T13:36:52.212Z,16.02
2022-09-07T13:39:56.469Z,14.90
2022-09-07T13:42:59.467Z,16.13
2022-09-07T13:46:04.288Z,16.35
2022-09-07T13:49:26.894Z,15.67
2022-09-07T13:52:41.802Z,16.92
2022-09-07T13:56:06.134Z,16.80
2022-09-07T13:59:29.087Z,23.25
2022-09-07T14:02:35.103Z,17.33
2022-09-07T14:05:38.020Z,17.27
2022-09-07T14:08:41.338Z,16.08
2022-09-07T14:11:46.191Z,17.75
2022-09-07T14:15:28.708Z,17.52
2022-09-07T14:18:31.837Z,17.30
2022-09-07T14:21:34.721Z,17.07
2022-09-07T14:24:40.385Z,16.52
2022-09-07T14:27:44.418Z,17.02
2022-09-07T14:30:47.369Z,15.52
2022-09-07T14:33:51.424Z,16.17
2022-09-07T14:36:54.372Z,16.77
2022-09-07T14:39:57.433Z,17.70
2022-09-07T14:43:00.452Z,18.00
2022-09-07T14:46:19.784Z,18.67
2022-09-07T14:49:23.081Z,17.80
2022-09-07T14:52:42.448Z,18.10
2022-09-07T14:55:46.533Z,19.70
2022-09-07T14:58:52.903Z,18.15
2022-09-07T15:02:27.069Z,19.15
2022-09-07T15:05:30.090Z,19.55
2022-09-07T15:08:35.894Z,18.50
2022-09-07T15:11:38.770Z,18.70
2022-09-07T15:14:41.796Z,19.52
2022-09-07T15:17:45.137Z,19.27
2022-09-07T15:20:48.234Z,23.98
2022-09-07T15:23:52.280Z,18.57
2022-09-07T15:27:02.905Z,19.40
2022-09-07T15:30:06.626Z,20.60
2022-09-07T15:33:11.472Z,19.13
2022-09-07T15:36:17.010Z,18.20
2022-09-07T15:39:25.610Z,17.17
2022-09-07T15:45:51.864Z,16.77
2022-09-07T15:48:55.538Z,17.23
2022-09-07T15:52:06.583Z,15.60
2022-09-07T15:55:11.290Z,15.40
2022-09-07T15:58:14.392Z,14.45
2022-09-07T16:04:40.712Z,14.80
2022-09-07T16:11:24.224Z,12.27
2022-09-07T16:14:27.242Z,11.77
2022-09-07T16:17:35.666Z,12.30
2022-09-07T16:20:41.130Z,13.18
2022-09-07T16:23:45.697Z,13.68
2022-09-07T16:26:48.610Z,14.30
2022-09-07T16:29:51.730Z,14.38
2022-09-07T16:32:54.805Z,13.60
2022-09-07T16:35:59.486Z,12.27
2022-09-07T16:39:03.076Z,13.73
2022-09-07T16:42:06.838Z,12.10
2022-09-07T16:48:34.613Z,17.33
2022-09-07T16:51:37.665Z,13.23
2022-09-07T16:54:40.628Z,11.45
2022-09-07T17:01:07.307Z,13.77
2022-09-07T17:04:11.391Z,12.50
2022-09-07T17:07:14.617Z,14.43
2022-09-07T17:10:17.642Z,13.95
2022-09-07T17:13:20.547Z,12.60
2022-09-07T17:16:29.561Z,14.98
2022-09-07T17:19:32.820Z,14.85
2022-09-07T17:22:36.050Z,17.75
2022-09-07T17:25:38.993Z,17.92
2022-09-07T17:28:44.117Z,16.97
2022-09-07T17:35:10.248Z,16.98
2022-09-07T17:41:36.096Z,17.10
2022-09-07T17:44:39.090Z,14.20
2022-09-07T17:47:42.098Z,15.80
2022-09-07T17:50:45.052Z,16.52
2022-09-07T17:53:47.956Z,18.08
2022-09-07T17:56:50.873Z,15.88
2022-09-07T18:00:12.114Z,17.07
2022-09-07T18:03:15.578Z,16.33
2022-09-07T18:06:18.659Z,16.80
2022-09-07T18:09:21.785Z,14.65
2022-09-07T18:12:24.867Z,16.75
2022-09-07T18:15:28.019Z,20.50
2022-09-07T18:18:31.027Z,18.48
2022-09-07T18:21:35.628Z,18.92
2022-09-07T18:24:38.543Z,18.33
2022-09-07T18:27:41.852Z,15.85
2022-09-07T18:30:44.863Z,16.93
2022-09-07T18:33:47.862Z,16.88
2022-09-07T18:36:51.029Z,17.13
2022-09-07T18:39:54.557Z,19.23
2022-09-07T18:42:57.617Z,19.02
2022-09-07T18:46:08.715Z,15.53
2022-09-07T18:49:11.658Z,17.83
2022-09-07T18:55:37.586Z,18.00
2022-09-07T18:58:41.848Z,14.70
2022-09-07T19:01:44.917Z,16.53
2022-09-07T19:08:10.869Z,17.48
2022-09-07T19:11:20.304Z,17.90
2022-09-07T19:14:23.326Z,19.50
2022-09-07T19:17:26.274Z,21.33
2022-09-07T19:20:29.289Z,19.35
2022-09-07T19:23:32.435Z,19.02
2022-09-07T19:26:36.860Z,18.60
2022-09-07T19:29:39.753Z,19.63
2022-09-07T19:32:42.793Z,20.77
2022-09-07T19:35:45.807Z,20.45
2022-09-07T19:38:49.234Z,19.40
2022-09-07T19:41:52.156Z,18.17
2022-09-07T19:44:55.163Z,19.42
2022-09-07T19:47:58.262Z,22.77
2022-09-07T19:51:02.200Z,21.83
2022-09-07T19:54:06.475Z,19.92
2022-09-07T19:57:09.419Z,19.48
2022-09-07T20:00:13.244Z,20.92
2022-09-07T20:03:16.144Z,21.30
2022-09-07T20:06:19.395Z,22.38
2022-09-07T20:09:22.379Z,18.55
2022-09-07T20:12:25.859Z,18.45
2022-09-07T20:15:28.870Z,18.63
2022-09-07T20:18:31.850Z,19.00
2022-09-07T20:21:36.816Z,21.67
2022-09-07T20:24:40.030Z,17.63
2022-09-07T20:27:42.971Z,17.77
2022-09-07T20:30:45.853Z,19.80
2022-09-07T20:33:49.560Z,19.63
2022-09-07T20:36:52.721Z,19.35
2022-09-07T20:39:55.693Z,21.50
2022-09-07T20:42:58.810Z,18.35
2022-09-07T20:46:01.709Z,20.35
2022-09-07T20:49:05.297Z,16.10
2022-09-07T20:52:08.230Z,18.88
2022-09-07T20:55:11.124Z,20.17
2022-09-07T20:58:14.017Z,19.92
2022-09-07T21:01:18.187Z,18.52
2022-09-07T21:04:21.131Z,17.77
2022-09-07T21:07:24.098Z,20.52
2022-09-07T21:10:27.171Z,20.25
2022-09-07T21:13:30.178Z,20.77
2022-09-07T21:16:33.573Z,22.35
2022-09-07T21:19:37.085Z,20.27
2022-09-07T21:22:40.006Z,20.42
2022-09-07T21:25:43.975Z,20.08
2022-09-07T21:28:46.878Z,19.70
2022-09-07T21:31:50.291Z,20.25
2022-09-07T21:34:54.917Z,21.23
2022-09-07T21:37:57.821Z,20.92
2022-09-07T21:41:05.266Z,19.80
2022-09-07T21:44:08.227Z,22.00
2022-09-07T21:47:11.113Z,23.40
2022-09-07T21:50:14.021Z,22.57
2022-09-07T21:53:16.943Z,21.17
2022-09-07T21:56:20.024Z,24.48
2022-09-07T21:59:22.959Z,22.40
2022-09-07T22:02:25.931Z,23.25
2022-09-07T22:05:28.849Z,21.93
2022-09-07T22:08:31.789Z,20.25
2022-09-07T22:11:34.801Z,20.25
2022-09-07T22:14:37.692Z,24.02
2022-09-07T22:17:44.411Z,22.45
2022-09-07T22:20:49.055Z,22.03
2022-09-07T22:23:53.240Z,23.92
2022-09-07T22:26:56.218Z,22.23
2022-09-07T22:29:59.152Z,20.48
2022-09-07T22:33:02.761Z,21.65
2022-09-07T22:36:13.948Z,23.00
2022-09-07T22:39:18.143Z,20.80
2022-09-07T22:42:21.087Z,23.10
2022-09-07T22:45:24.002Z,23.85
2022-09-07T22:48:27.178Z,21.67
2022-09-07T22:51:30.187Z,25.17
2022-09-07T22:54:33.128Z,25.33
2022-09-07T22:57:36.095Z,25.00
2022-09-07T23:00:38.979Z,25.10
2022-09-07T23:03:42.715Z,22.55
2022-09-07T23:06:45.695Z,22.97
2022-09-07T23:09:48.590Z,24.02
2022-09-07T23:12:53.363Z,26.05
2022-09-07T23:15:56.389Z,23.83
2022-09-07T23:18:59.655Z,25.50
2022-09-07T23:22:02.593Z,24.83
2022-09-07T23:25:06.015Z,24.55
2022-09-07T23:28:10.892Z,25.50
2022-09-07T23:31:13.860Z,24.80
2022-09-07T23:34:16.910Z,26.17
2022-09-07T23:37:19.820Z,27.37
2022-09-07T23:40:22.712Z,23.67
2022-09-07T23:43:27.373Z,24.35
2022-09-07T23:46:30.466Z,26.35
2022-09-07T23:49:33.400Z,23.50
2022-09-07T23:52:37.311Z,26.97
2022-09-07T23:55:40.237Z,24.70
2022-09-07T23:58:43.333Z,25.45
